Aviation Digital Data Service (ADDS)

Output produced by METARs form (2250 UTC 21 November 2017)
found at http://aviationweather.gov/adds/metars/
 
KUTS 212153Z AUTO 07003KT 10SM CLR 21/15 A2989 RMK AO2 SLP119 T02110150